sensor_id;sensor_type;location;lat;lon;timestamp;P1;durP1;ratioP1;P2;durP2;ratioP2
10596;SDS011;5346;48.766;8.674;2023-06-04T00:00:18;7.63;;;4.50;;
10596;SDS011;5346;48.766;8.674;2023-06-04T00:02:52;7.40;;;4.65;;
10596;SDS011;5346;48.766;8.674;2023-06-04T00:05:20;7.15;;;4.43;;
10596;SDS011;5346;48.766;8.674;2023-06-04T00:07:59;8.82;;;4.43;;
10596;SDS011;5346;48.766;8.674;2023-06-04T00:10:43;9.13;;;4.90;;
10596;SDS011;5346;48.766;8.674;2023-06-04T00:13:10;8.45;;;5.07;;
10596;SDS011;5346;48.766;8.674;2023-06-04T00:15:44;5.93;;;4.55;;
10596;SDS011;5346;48.766;8.674;2023-06-04T00:18:11;8.05;;;5.20;;
10596;SDS011;5346;48.766;8.674;2023-06-04T00:20:46;8.40;;;4.78;;
10596;SDS011;5346;48.766;8.674;2023-06-04T00:23:21;6.35;;;4.60;;
10596;SDS011;5346;48.766;8.674;2023-06-04T00:26:02;7.45;;;4.65;;
10596;SDS011;5346;48.766;8.674;2023-06-04T00:28:31;6.65;;;4.50;;
10596;SDS011;5346;48.766;8.674;2023-06-04T00:31:06;9.23;;;4.63;;
10596;SDS011;5346;48.766;8.674;2023-06-04T00:33:40;11.43;;;4.70;;
10596;SDS011;5346;48.766;8.674;2023-06-04T00:36:14;10.18;;;5.15;;
10596;SDS011;5346;48.766;8.674;2023-06-04T00:38:42;6.63;;;4.57;;
10596;SDS011;5346;48.766;8.674;2023-06-04T00:41:17;7.47;;;5.53;;
10596;SDS011;5346;48.766;8.674;2023-06-04T00:43:52;7.00;;;4.70;;
10596;SDS011;5346;48.766;8.674;2023-06-04T00:46:29;7.30;;;5.50;;
10596;SDS011;5346;48.766;8.674;2023-06-04T00:49:01;6.15;;;4.85;;
10596;SDS011;5346;48.766;8.674;2023-06-04T00:51:35;6.65;;;4.72;;
10596;SDS011;5346;48.766;8.674;2023-06-04T00:54:02;8.60;;;5.25;;
10596;SDS011;5346;48.766;8.674;2023-06-04T00:56:43;6.10;;;4.88;;
10596;SDS011;5346;48.766;8.674;2023-06-04T00:59:17;8.98;;;5.18;;
10596;SDS011;5346;48.766;8.674;2023-06-04T01:04:56;9.20;;;4.85;;
10596;SDS011;5346;48.766;8.674;2023-06-04T01:07:36;9.40;;;5.10;;
10596;SDS011;5346;48.766;8.674;2023-06-04T01:10:14;8.10;;;5.15;;
10596;SDS011;5346;48.766;8.674;2023-06-04T01:12:42;7.13;;;4.80;;
10596;SDS011;5346;48.766;8.674;2023-06-04T01:15:17;13.35;;;4.85;;
10596;SDS011;5346;48.766;8.674;2023-06-04T01:17:44;11.55;;;5.35;;
10596;SDS011;5346;48.766;8.674;2023-06-04T01:23:14;10.52;;;5.22;;
10596;SDS011;5346;48.766;8.674;2023-06-04T01:26:15;6.45;;;4.80;;
10596;SDS011;5346;48.766;8.674;2023-06-04T01:28:49;8.18;;;5.22;;
10596;SDS011;5346;48.766;8.674;2023-06-04T01:31:24;9.05;;;5.25;;
10596;SDS011;5346;48.766;8.674;2023-06-04T01:33:53;9.10;;;4.70;;
10596;SDS011;5346;48.766;8.674;2023-06-04T01:36:29;9.30;;;5.33;;
10596;SDS011;5346;48.766;8.674;2023-06-04T01:38:56;7.23;;;5.37;;
10596;SDS011;5346;48.766;8.674;2023-06-04T01:41:31;10.80;;;5.80;;
10596;SDS011;5346;48.766;8.674;2023-06-04T01:43:58;9.35;;;5.15;;
10596;SDS011;5346;48.766;8.674;2023-06-04T01:46:32;7.50;;;4.63;;
10596;SDS011;5346;48.766;8.674;2023-06-04T01:48:59;6.53;;;5.00;;
10596;SDS011;5346;48.766;8.674;2023-06-04T01:51:34;10.93;;;4.88;;
10596;SDS011;5346;48.766;8.674;2023-06-04T01:54:08;10.73;;;5.05;;
10596;SDS011;5346;48.766;8.674;2023-06-04T01:56:36;7.83;;;4.87;;
10596;SDS011;5346;48.766;8.674;2023-06-04T01:59:09;6.83;;;4.70;;
10596;SDS011;5346;48.766;8.674;2023-06-04T02:01:38;7.23;;;4.73;;
10596;SDS011;5346;48.766;8.674;2023-06-04T02:04:12;7.20;;;4.60;;
10596;SDS011;5346;48.766;8.674;2023-06-04T02:06:55;5.20;;;4.43;;
10596;SDS011;5346;48.766;8.674;2023-06-04T02:09:32;8.30;;;5.07;;
10596;SDS011;5346;48.766;8.674;2023-06-04T02:12:06;7.73;;;5.47;;
10596;SDS011;5346;48.766;8.674;2023-06-04T02:14:41;12.47;;;5.00;;
10596;SDS011;5346;48.766;8.674;2023-06-04T02:17:18;11.33;;;5.10;;
10596;SDS011;5346;48.766;8.674;2023-06-04T02:19:52;9.80;;;5.13;;
10596;SDS011;5346;48.766;8.674;2023-06-04T02:22:27;5.70;;;4.63;;
10596;SDS011;5346;48.766;8.674;2023-06-04T02:24:54;7.53;;;4.27;;
10596;SDS011;5346;48.766;8.674;2023-06-04T02:27:28;6.53;;;4.70;;
10596;SDS011;5346;48.766;8.674;2023-06-04T02:29:55;8.50;;;4.47;;
10596;SDS011;5346;48.766;8.674;2023-06-04T02:32:29;7.30;;;4.80;;
10596;SDS011;5346;48.766;8.674;2023-06-04T02:35:03;5.93;;;4.13;;
10596;SDS011;5346;48.766;8.674;2023-06-04T02:37:37;6.00;;;4.40;;
10596;SDS011;5346;48.766;8.674;2023-06-04T02:40:11;6.43;;;4.20;;
10596;SDS011;5346;48.766;8.674;2023-06-04T02:42:38;9.67;;;4.50;;
10596;SDS011;5346;48.766;8.674;2023-06-04T02:45:13;6.23;;;4.27;;
10596;SDS011;5346;48.766;8.674;2023-06-04T02:47:40;8.07;;;4.33;;
10596;SDS011;5346;48.766;8.674;2023-06-04T02:50:14;9.37;;;4.57;;
10596;SDS011;5346;48.766;8.674;2023-06-04T02:52:43;10.30;;;4.83;;
10596;SDS011;5346;48.766;8.674;2023-06-04T02:55:16;5.47;;;4.27;;
10596;SDS011;5346;48.766;8.674;2023-06-04T02:57:50;7.43;;;4.43;;
10596;SDS011;5346;48.766;8.674;2023-06-04T03:00:25;7.73;;;4.43;;
10596;SDS011;5346;48.766;8.674;2023-06-04T03:02:52;7.57;;;4.63;;
10596;SDS011;5346;48.766;8.674;2023-06-04T03:05:40;8.30;;;4.77;;
10596;SDS011;5346;48.766;8.674;2023-06-04T03:08:09;10.53;;;5.33;;
10596;SDS011;5346;48.766;8.674;2023-06-04T03:10:43;8.90;;;4.60;;
10596;SDS011;5346;48.766;8.674;2023-06-04T03:13:10;5.33;;;4.23;;
10596;SDS011;5346;48.766;8.674;2023-06-04T03:15:44;4.57;;;4.17;;
10596;SDS011;5346;48.766;8.674;2023-06-04T03:18:13;8.90;;;4.27;;
10596;SDS011;5346;48.766;8.674;2023-06-04T03:20:46;5.10;;;4.00;;
10596;SDS011;5346;48.766;8.674;2023-06-04T03:23:13;8.67;;;4.27;;
10596;SDS011;5346;48.766;8.674;2023-06-04T03:25:47;7.23;;;3.90;;
10596;SDS011;5346;48.766;8.674;2023-06-04T03:28:14;4.47;;;3.57;;
10596;SDS011;5346;48.766;8.674;2023-06-04T03:30:48;5.87;;;4.00;;
10596;SDS011;5346;48.766;8.674;2023-06-04T03:33:15;5.23;;;3.80;;
10596;SDS011;5346;48.766;8.674;2023-06-04T03:35:52;5.13;;;3.93;;
10596;SDS011;5346;48.766;8.674;2023-06-04T03:38:19;15.50;;;4.00;;
10596;SDS011;5346;48.766;8.674;2023-06-04T03:40:53;6.10;;;3.80;;
10596;SDS011;5346;48.766;8.674;2023-06-04T03:43:20;7.23;;;3.80;;
10596;SDS011;5346;48.766;8.674;2023-06-04T03:46:00;6.40;;;3.70;;
10596;SDS011;5346;48.766;8.674;2023-06-04T03:48:28;6.30;;;3.50;;
10596;SDS011;5346;48.766;8.674;2023-06-04T03:51:01;6.40;;;3.67;;
10596;SDS011;5346;48.766;8.674;2023-06-04T03:53:28;6.40;;;3.70;;
10596;SDS011;5346;48.766;8.674;2023-06-04T03:56:02;7.20;;;3.80;;
10596;SDS011;5346;48.766;8.674;2023-06-04T03:58:36;6.27;;;3.47;;
10596;SDS011;5346;48.766;8.674;2023-06-04T04:01:10;5.47;;;3.37;;
10596;SDS011;5346;48.766;8.674;2023-06-04T04:03:37;5.23;;;3.40;;
10596;SDS011;5346;48.766;8.674;2023-06-04T04:06:11;8.73;;;3.30;;
10596;SDS011;5346;48.766;8.674;2023-06-04T04:08:45;5.60;;;3.50;;
10596;SDS011;5346;48.766;8.674;2023-06-04T04:11:19;5.73;;;3.23;;
10596;SDS011;5346;48.766;8.674;2023-06-04T04:13:46;9.23;;;3.67;;
10596;SDS011;5346;48.766;8.674;2023-06-04T04:16:21;6.27;;;3.47;;
10596;SDS011;5346;48.766;8.674;2023-06-04T04:18:48;5.50;;;3.30;;
10596;SDS011;5346;48.766;8.674;2023-06-04T04:21:23;8.80;;;3.87;;
10596;SDS011;5346;48.766;8.674;2023-06-04T04:23:52;4.67;;;3.17;;
10596;SDS011;5346;48.766;8.674;2023-06-04T04:26:26;5.03;;;2.87;;
10596;SDS011;5346;48.766;8.674;2023-06-04T04:29:00;7.10;;;3.00;;
10596;SDS011;5346;48.766;8.674;2023-06-04T04:31:34;4.40;;;3.23;;
10596;SDS011;5346;48.766;8.674;2023-06-04T04:34:05;11.40;;;3.10;;
10596;SDS011;5346;48.766;8.674;2023-06-04T04:36:41;4.00;;;2.93;;
10596;SDS011;5346;48.766;8.674;2023-06-04T04:39:15;5.53;;;3.20;;
10596;SDS011;5346;48.766;8.674;2023-06-04T04:41:42;4.82;;;3.00;;
10596;SDS011;5346;48.766;8.674;2023-06-04T04:44:16;4.57;;;2.90;;
10596;SDS011;5346;48.766;8.674;2023-06-04T04:46:50;4.28;;;2.63;;
10596;SDS011;5346;48.766;8.674;2023-06-04T04:49:17;3.15;;;2.80;;
10596;SDS011;5346;48.766;8.674;2023-06-04T04:51:51;8.17;;;2.43;;
10596;SDS011;5346;48.766;8.674;2023-06-04T04:54:18;4.05;;;2.70;;
10596;SDS011;5346;48.766;8.674;2023-06-04T04:56:52;4.63;;;2.50;;
10596;SDS011;5346;48.766;8.674;2023-06-04T04:59:39;3.88;;;2.70;;
10596;SDS011;5346;48.766;8.674;2023-06-04T05:02:14;4.50;;;2.83;;
10596;SDS011;5346;48.766;8.674;2023-06-04T05:04:54;4.43;;;2.65;;
10596;SDS011;5346;48.766;8.674;2023-06-04T05:07:28;3.20;;;2.38;;
10596;SDS011;5346;48.766;8.674;2023-06-04T05:10:03;3.60;;;2.22;;
10596;SDS011;5346;48.766;8.674;2023-06-04T05:12:31;5.57;;;2.80;;
10596;SDS011;5346;48.766;8.674;2023-06-04T05:15:05;2.90;;;2.22;;
10596;SDS011;5346;48.766;8.674;2023-06-04T05:17:33;6.30;;;2.70;;
10596;SDS011;5346;48.766;8.674;2023-06-04T05:20:08;4.82;;;4.03;;
10596;SDS011;5346;48.766;8.674;2023-06-04T05:22:38;4.32;;;2.08;;
10596;SDS011;5346;48.766;8.674;2023-06-04T05:25:13;3.58;;;2.33;;
10596;SDS011;5346;48.766;8.674;2023-06-04T05:27:49;4.43;;;2.40;;
10596;SDS011;5346;48.766;8.674;2023-06-04T05:30:16;3.22;;;2.28;;
10596;SDS011;5346;48.766;8.674;2023-06-04T05:32:50;4.50;;;2.33;;
10596;SDS011;5346;48.766;8.674;2023-06-04T05:35:26;5.43;;;2.60;;
10596;SDS011;5346;48.766;8.674;2023-06-04T05:38:00;4.90;;;2.35;;
10596;SDS011;5346;48.766;8.674;2023-06-04T05:40:34;4.70;;;2.40;;
10596;SDS011;5346;48.766;8.674;2023-06-04T05:43:02;4.28;;;2.88;;
10596;SDS011;5346;48.766;8.674;2023-06-04T05:45:35;3.70;;;2.30;;
10596;SDS011;5346;48.766;8.674;2023-06-04T05:48:03;4.65;;;2.40;;
10596;SDS011;5346;48.766;8.674;2023-06-04T05:50:38;3.42;;;2.33;;
10596;SDS011;5346;48.766;8.674;2023-06-04T05:53:06;6.88;;;3.00;;
10596;SDS011;5346;48.766;8.674;2023-06-04T05:55:40;8.05;;;2.85;;
10596;SDS011;5346;48.766;8.674;2023-06-04T05:58:14;5.00;;;2.03;;
10596;SDS011;5346;48.766;8.674;2023-06-04T06:00:48;3.35;;;2.35;;
10596;SDS011;5346;48.766;8.674;2023-06-04T06:03:23;3.25;;;2.13;;
10596;SDS011;5346;48.766;8.674;2023-06-04T06:06:04;3.55;;;2.17;;
10596;SDS011;5346;48.766;8.674;2023-06-04T06:08:39;3.13;;;2.17;;
10596;SDS011;5346;48.766;8.674;2023-06-04T06:11:06;3.95;;;2.58;;
10596;SDS011;5346;48.766;8.674;2023-06-04T06:13:40;4.55;;;2.28;;
10596;SDS011;5346;48.766;8.674;2023-06-04T06:16:14;3.38;;;2.35;;
10596;SDS011;5346;48.766;8.674;2023-06-04T06:18:43;8.25;;;3.72;;
10596;SDS011;5346;48.766;8.674;2023-06-04T06:21:17;4.60;;;2.55;;
10596;SDS011;5346;48.766;8.674;2023-06-04T06:23:44;3.08;;;2.22;;
10596;SDS011;5346;48.766;8.674;2023-06-04T06:26:18;4.38;;;2.33;;
10596;SDS011;5346;48.766;8.674;2023-06-04T06:28:46;3.72;;;2.95;;
10596;SDS011;5346;48.766;8.674;2023-06-04T06:31:20;4.55;;;2.42;;
10596;SDS011;5346;48.766;8.674;2023-06-04T06:34:01;4.50;;;2.15;;
10596;SDS011;5346;48.766;8.674;2023-06-04T06:36:42;8.30;;;2.83;;
10596;SDS011;5346;48.766;8.674;2023-06-04T06:39:17;7.82;;;2.60;;
10596;SDS011;5346;48.766;8.674;2023-06-04T06:41:51;5.30;;;2.58;;
10596;SDS011;5346;48.766;8.674;2023-06-04T06:44:19;4.38;;;2.70;;
10596;SDS011;5346;48.766;8.674;2023-06-04T06:46:53;10.27;;;2.60;;
10596;SDS011;5346;48.766;8.674;2023-06-04T06:49:21;4.10;;;2.60;;
10596;SDS011;5346;48.766;8.674;2023-06-04T06:51:55;3.35;;;2.38;;
10596;SDS011;5346;48.766;8.674;2023-06-04T06:54:29;4.95;;;2.28;;
10596;SDS011;5346;48.766;8.674;2023-06-04T06:57:03;6.93;;;2.75;;
10596;SDS011;5346;48.766;8.674;2023-06-04T06:59:41;3.75;;;2.40;;
10596;SDS011;5346;48.766;8.674;2023-06-04T07:02:15;3.50;;;2.38;;
10596;SDS011;5346;48.766;8.674;2023-06-04T07:04:44;7.13;;;2.80;;
10596;SDS011;5346;48.766;8.674;2023-06-04T07:07:27;5.43;;;2.72;;
10596;SDS011;5346;48.766;8.674;2023-06-04T07:09:54;4.88;;;2.55;;
10596;SDS011;5346;48.766;8.674;2023-06-04T07:12:28;7.03;;;2.60;;
10596;SDS011;5346;48.766;8.674;2023-06-04T07:14:56;5.40;;;3.17;;
10596;SDS011;5346;48.766;8.674;2023-06-04T07:17:37;5.50;;;2.92;;
10596;SDS011;5346;48.766;8.674;2023-06-04T07:20:05;4.78;;;2.25;;
10596;SDS011;5346;48.766;8.674;2023-06-04T07:22:41;4.18;;;2.83;;
10596;SDS011;5346;48.766;8.674;2023-06-04T07:25:15;4.65;;;2.60;;
10596;SDS011;5346;48.766;8.674;2023-06-04T07:27:43;8.85;;;3.45;;
10596;SDS011;5346;48.766;8.674;2023-06-04T07:30:17;6.03;;;2.75;;
10596;SDS011;5346;48.766;8.674;2023-06-04T07:32:48;6.15;;;3.00;;
10596;SDS011;5346;48.766;8.674;2023-06-04T07:35:23;5.07;;;2.90;;
10596;SDS011;5346;48.766;8.674;2023-06-04T07:37:50;3.28;;;2.47;;
10596;SDS011;5346;48.766;8.674;2023-06-04T07:40:24;4.32;;;2.85;;
10596;SDS011;5346;48.766;8.674;2023-06-04T07:42:52;4.65;;;2.85;;
10596;SDS011;5346;48.766;8.674;2023-06-04T07:45:25;11.07;;;3.47;;
10596;SDS011;5346;48.766;8.674;2023-06-04T07:48:02;6.57;;;3.22;;
10596;SDS011;5346;48.766;8.674;2023-06-04T07:50:37;8.65;;;3.53;;
10596;SDS011;5346;48.766;8.674;2023-06-04T07:53:12;5.18;;;2.85;;
10596;SDS011;5346;48.766;8.674;2023-06-04T07:55:39;4.10;;;3.17;;
10596;SDS011;5346;48.766;8.674;2023-06-04T07:58:07;5.03;;;3.30;;
10596;SDS011;5346;48.766;8.674;2023-06-04T08:00:41;5.70;;;3.45;;
10596;SDS011;5346;48.766;8.674;2023-06-04T08:03:09;4.32;;;3.20;;
10596;SDS011;5346;48.766;8.674;2023-06-04T08:05:49;4.68;;;3.63;;
10596;SDS011;5346;48.766;8.674;2023-06-04T08:08:17;8.30;;;3.67;;
10596;SDS011;5346;48.766;8.674;2023-06-04T08:10:51;5.03;;;3.08;;
10596;SDS011;5346;48.766;8.674;2023-06-04T08:13:26;5.70;;;3.10;;
10596;SDS011;5346;48.766;8.674;2023-06-04T08:16:00;4.15;;;3.20;;
10596;SDS011;5346;48.766;8.674;2023-06-04T08:18:28;3.63;;;3.25;;
10596;SDS011;5346;48.766;8.674;2023-06-04T08:21:02;5.03;;;3.30;;
10596;SDS011;5346;48.766;8.674;2023-06-04T08:23:37;6.15;;;3.20;;
10596;SDS011;5346;48.766;8.674;2023-06-04T08:26:11;5.57;;;3.60;;
10596;SDS011;5346;48.766;8.674;2023-06-04T08:28:38;7.55;;;3.17;;
10596;SDS011;5346;48.766;8.674;2023-06-04T08:31:12;10.63;;;3.22;;
10596;SDS011;5346;48.766;8.674;2023-06-04T08:33:40;6.20;;;3.10;;
10596;SDS011;5346;48.766;8.674;2023-06-04T08:36:15;6.70;;;3.20;;
10596;SDS011;5346;48.766;8.674;2023-06-04T08:38:43;10.07;;;3.50;;
10596;SDS011;5346;48.766;8.674;2023-06-04T08:41:24;12.07;;;3.50;;
10596;SDS011;5346;48.766;8.674;2023-06-04T08:44:01;6.00;;;2.92;;
10596;SDS011;5346;48.766;8.674;2023-06-04T08:46:39;3.67;;;2.95;;
10596;SDS011;5346;48.766;8.674;2023-06-04T08:49:08;5.05;;;3.20;;
10596;SDS011;5346;48.766;8.674;2023-06-04T08:51:45;4.65;;;2.88;;
10596;SDS011;5346;48.766;8.674;2023-06-04T08:54:13;3.55;;;3.00;;
10596;SDS011;5346;48.766;8.674;2023-06-04T08:56:48;4.50;;;2.80;;
10596;SDS011;5346;48.766;8.674;2023-06-04T08:59:18;7.95;;;3.33;;
10596;SDS011;5346;48.766;8.674;2023-06-04T09:01:53;11.48;;;3.45;;
10596;SDS011;5346;48.766;8.674;2023-06-04T09:04:22;3.67;;;2.92;;
10596;SDS011;5346;48.766;8.674;2023-06-04T09:07:11;4.90;;;2.88;;
10596;SDS011;5346;48.766;8.674;2023-06-04T09:09:48;5.95;;;3.20;;
10596;SDS011;5346;48.766;8.674;2023-06-04T09:12:39;3.85;;;2.95;;
10596;SDS011;5346;48.766;8.674;2023-06-04T09:15:29;4.78;;;3.17;;
10596;SDS011;5346;48.766;8.674;2023-06-04T09:18:04;4.75;;;3.00;;
10596;SDS011;5346;48.766;8.674;2023-06-04T09:20:37;11.57;;;2.92;;
10596;SDS011;5346;48.766;8.674;2023-06-04T09:23:14;3.55;;;2.75;;
10596;SDS011;5346;48.766;8.674;2023-06-04T09:25:42;3.72;;;3.30;;
10596;SDS011;5346;48.766;8.674;2023-06-04T09:28:20;5.80;;;3.03;;
10596;SDS011;5346;48.766;8.674;2023-06-04T09:30:53;3.90;;;2.85;;
10596;SDS011;5346;48.766;8.674;2023-06-04T09:33:21;5.47;;;3.40;;
10596;SDS011;5346;48.766;8.674;2023-06-04T09:35:57;7.05;;;3.13;;
10596;SDS011;5346;48.766;8.674;2023-06-04T09:38:34;8.30;;;2.97;;
10596;SDS011;5346;48.766;8.674;2023-06-04T09:41:12;4.95;;;2.95;;
10596;SDS011;5346;48.766;8.674;2023-06-04T09:43:59;4.30;;;3.63;;
10596;SDS011;5346;48.766;8.674;2023-06-04T09:46:37;5.07;;;3.65;;
10596;SDS011;5346;48.766;8.674;2023-06-04T09:49:05;8.40;;;3.40;;
10596;SDS011;5346;48.766;8.674;2023-06-04T09:51:46;6.75;;;3.40;;
10596;SDS011;5346;48.766;8.674;2023-06-04T09:54:15;5.00;;;3.13;;
10596;SDS011;5346;48.766;8.674;2023-06-04T09:56:50;5.40;;;3.22;;
10596;SDS011;5346;48.766;8.674;2023-06-04T09:59:18;7.88;;;3.78;;
10596;SDS011;5346;48.766;8.674;2023-06-04T10:01:56;7.85;;;3.28;;
10596;SDS011;5346;48.766;8.674;2023-06-04T10:04:27;3.42;;;2.92;;
10596;SDS011;5346;48.766;8.674;2023-06-04T10:07:15;10.60;;;3.78;;
10596;SDS011;5346;48.766;8.674;2023-06-04T10:09:50;4.95;;;3.58;;
10596;SDS011;5346;48.766;8.674;2023-06-04T10:12:29;6.10;;;3.40;;
10596;SDS011;5346;48.766;8.674;2023-06-04T10:15:12;6.30;;;3.05;;
10596;SDS011;5346;48.766;8.674;2023-06-04T10:17:47;5.50;;;3.22;;
10596;SDS011;5346;48.766;8.674;2023-06-04T10:20:17;9.40;;;3.15;;
10596;SDS011;5346;48.766;8.674;2023-06-04T10:22:59;5.50;;;3.58;;
10596;SDS011;5346;48.766;8.674;2023-06-04T10:25:35;5.53;;;3.30;;
10596;SDS011;5346;48.766;8.674;2023-06-04T10:28:03;6.25;;;3.30;;
10596;SDS011;5346;48.766;8.674;2023-06-04T10:30:37;4.75;;;3.05;;
10596;SDS011;5346;48.766;8.674;2023-06-04T10:33:05;4.30;;;3.15;;
10596;SDS011;5346;48.766;8.674;2023-06-04T10:35:43;4.60;;;3.33;;
10596;SDS011;5346;48.766;8.674;2023-06-04T10:38:16;7.00;;;3.83;;
10596;SDS011;5346;48.766;8.674;2023-06-04T10:40:45;5.82;;;4.10;;
10596;SDS011;5346;48.766;8.674;2023-06-04T10:43:21;5.85;;;3.70;;
10596;SDS011;5346;48.766;8.674;2023-06-04T10:45:48;7.57;;;3.40;;
10596;SDS011;5346;48.766;8.674;2023-06-04T10:48:22;8.40;;;4.10;;
10596;SDS011;5346;48.766;8.674;2023-06-04T10:50:56;7.88;;;3.75;;
10596;SDS011;5346;48.766;8.674;2023-06-04T10:53:36;4.80;;;3.38;;
10596;SDS011;5346;48.766;8.674;2023-06-04T10:56:10;4.03;;;3.40;;
10596;SDS011;5346;48.766;8.674;2023-06-04T10:58:38;6.00;;;3.67;;
10596;SDS011;5346;48.766;8.674;2023-06-04T11:01:22;6.15;;;3.90;;
10596;SDS011;5346;48.766;8.674;2023-06-04T11:04:01;9.10;;;3.80;;
10596;SDS011;5346;48.766;8.674;2023-06-04T11:06:43;7.90;;;3.60;;
10596;SDS011;5346;48.766;8.674;2023-06-04T11:09:18;5.20;;;4.00;;
10596;SDS011;5346;48.766;8.674;2023-06-04T11:11:56;5.68;;;3.83;;
10596;SDS011;5346;48.766;8.674;2023-06-04T11:14:31;6.88;;;3.78;;
10596;SDS011;5346;48.766;8.674;2023-06-04T11:17:09;8.00;;;4.07;;
10596;SDS011;5346;48.766;8.674;2023-06-04T11:19:46;4.10;;;3.53;;
10596;SDS011;5346;48.766;8.674;2023-06-04T11:22:13;5.28;;;3.85;;
10596;SDS011;5346;48.766;8.674;2023-06-04T11:24:47;7.18;;;3.80;;
10596;SDS011;5346;48.766;8.674;2023-06-04T11:27:15;8.18;;;3.80;;
10596;SDS011;5346;48.766;8.674;2023-06-04T11:30:03;4.32;;;3.25;;
10596;SDS011;5346;48.766;8.674;2023-06-04T11:32:34;5.53;;;3.30;;
10596;SDS011;5346;48.766;8.674;2023-06-04T11:35:08;4.75;;;3.60;;
10596;SDS011;5346;48.766;8.674;2023-06-04T11:37:38;6.43;;;3.50;;
10596;SDS011;5346;48.766;8.674;2023-06-04T11:40:17;5.35;;;3.22;;
10596;SDS011;5346;48.766;8.674;2023-06-04T11:42:49;6.22;;;3.38;;
10596;SDS011;5346;48.766;8.674;2023-06-04T11:45:24;5.85;;;3.50;;
10596;SDS011;5346;48.766;8.674;2023-06-04T11:47:54;5.75;;;3.80;;
10596;SDS011;5346;48.766;8.674;2023-06-04T11:50:29;9.30;;;3.45;;
10596;SDS011;5346;48.766;8.674;2023-06-04T11:52:58;4.72;;;3.28;;
10596;SDS011;5346;48.766;8.674;2023-06-04T11:55:34;3.60;;;3.22;;
10596;SDS011;5346;48.766;8.674;2023-06-04T11:58:08;5.15;;;3.10;;
10596;SDS011;5346;48.766;8.674;2023-06-04T12:00:42;6.80;;;3.08;;
10596;SDS011;5346;48.766;8.674;2023-06-04T12:03:10;5.55;;;3.42;;
10596;SDS011;5346;48.766;8.674;2023-06-04T12:05:51;5.68;;;3.75;;
10596;SDS011;5346;48.766;8.674;2023-06-04T12:08:26;3.83;;;3.03;;
10596;SDS011;5346;48.766;8.674;2023-06-04T12:10:53;11.18;;;3.80;;
10596;SDS011;5346;48.766;8.674;2023-06-04T12:13:27;4.13;;;3.63;;
10596;SDS011;5346;48.766;8.674;2023-06-04T12:16:04;5.53;;;3.53;;
10596;SDS011;5346;48.766;8.674;2023-06-04T12:18:38;4.38;;;3.58;;
10596;SDS011;5346;48.766;8.674;2023-06-04T12:21:22;6.30;;;3.60;;
10596;SDS011;5346;48.766;8.674;2023-06-04T12:24:09;5.07;;;3.67;;
10596;SDS011;5346;48.766;8.674;2023-06-04T12:26:45;6.03;;;4.10;;
10596;SDS011;5346;48.766;8.674;2023-06-04T12:29:29;6.85;;;3.65;;
10596;SDS011;5346;48.766;8.674;2023-06-04T12:32:02;3.40;;;3.10;;
10596;SDS011;5346;48.766;8.674;2023-06-04T12:34:41;6.28;;;3.83;;
10596;SDS011;5346;48.766;8.674;2023-06-04T12:37:17;5.05;;;3.72;;
10596;SDS011;5346;48.766;8.674;2023-06-04T12:39:47;5.40;;;3.45;;
10596;SDS011;5346;48.766;8.674;2023-06-04T12:42:23;5.25;;;3.15;;
10596;SDS011;5346;48.766;8.674;2023-06-04T12:44:51;4.22;;;3.28;;
10596;SDS011;5346;48.766;8.674;2023-06-04T12:47:25;7.75;;;3.67;;
10596;SDS011;5346;48.766;8.674;2023-06-04T12:49:53;5.72;;;4.07;;
10596;SDS011;5346;48.766;8.674;2023-06-04T12:52:27;7.20;;;3.42;;
10596;SDS011;5346;48.766;8.674;2023-06-04T12:54:54;6.28;;;3.22;;
10596;SDS011;5346;48.766;8.674;2023-06-04T12:57:29;4.63;;;3.72;;
10596;SDS011;5346;48.766;8.674;2023-06-04T12:59:56;6.10;;;3.40;;
10596;SDS011;5346;48.766;8.674;2023-06-04T13:02:31;5.25;;;3.53;;
10596;SDS011;5346;48.766;8.674;2023-06-04T13:05:05;4.38;;;3.28;;
10596;SDS011;5346;48.766;8.674;2023-06-04T13:07:39;6.32;;;3.08;;
10596;SDS011;5346;48.766;8.674;2023-06-04T13:10:13;4.78;;;3.33;;
10596;SDS011;5346;48.766;8.674;2023-06-04T13:12:47;6.63;;;3.58;;
10596;SDS011;5346;48.766;8.674;2023-06-04T13:15:15;3.72;;;3.20;;
10596;SDS011;5346;48.766;8.674;2023-06-04T13:17:50;3.53;;;3.15;;
10596;SDS011;5346;48.766;8.674;2023-06-04T13:20:17;5.47;;;3.53;;
10596;SDS011;5346;48.766;8.674;2023-06-04T13:22:52;6.38;;;3.38;;
10596;SDS011;5346;48.766;8.674;2023-06-04T13:25:19;8.48;;;3.05;;
10596;SDS011;5346;48.766;8.674;2023-06-04T13:27:53;4.22;;;3.17;;
10596;SDS011;5346;48.766;8.674;2023-06-04T13:30:28;7.18;;;3.33;;
10596;SDS011;5346;48.766;8.674;2023-06-04T13:33:02;6.38;;;3.85;;
10596;SDS011;5346;48.766;8.674;2023-06-04T13:35:30;4.00;;;3.50;;
10596;SDS011;5346;48.766;8.674;2023-06-04T13:38:05;6.47;;;3.40;;
10596;SDS011;5346;48.766;8.674;2023-06-04T13:40:34;6.20;;;3.58;;
10596;SDS011;5346;48.766;8.674;2023-06-04T13:43:09;4.80;;;3.15;;
10596;SDS011;5346;48.766;8.674;2023-06-04T13:45:39;7.38;;;3.03;;
10596;SDS011;5346;48.766;8.674;2023-06-04T13:48:07;7.57;;;3.67;;
10596;SDS011;5346;48.766;8.674;2023-06-04T13:50:41;6.80;;;3.45;;
10596;SDS011;5346;48.766;8.674;2023-06-04T13:53:17;4.28;;;3.45;;
10596;SDS011;5346;48.766;8.674;2023-06-04T13:55:57;10.93;;;3.10;;
10596;SDS011;5346;48.766;8.674;2023-06-04T13:58:33;6.90;;;3.35;;
10596;SDS011;5346;48.766;8.674;2023-06-04T14:01:09;5.88;;;3.28;;
10596;SDS011;5346;48.766;8.674;2023-06-04T14:03:46;5.55;;;3.53;;
10596;SDS011;5346;48.766;8.674;2023-06-04T14:06:41;4.22;;;3.72;;
10596;SDS011;5346;48.766;8.674;2023-06-04T14:09:15;6.60;;;4.13;;
10596;SDS011;5346;48.766;8.674;2023-06-04T14:11:52;6.75;;;3.92;;
10596;SDS011;5346;48.766;8.674;2023-06-04T14:14:22;7.75;;;3.80;;
10596;SDS011;5346;48.766;8.674;2023-06-04T14:17:02;7.20;;;3.85;;
10596;SDS011;5346;48.766;8.674;2023-06-04T14:19:34;6.18;;;4.05;;
10596;SDS011;5346;48.766;8.674;2023-06-04T14:22:10;7.47;;;3.40;;
10596;SDS011;5346;48.766;8.674;2023-06-04T14:24:42;5.25;;;3.53;;
10596;SDS011;5346;48.766;8.674;2023-06-04T14:27:16;5.10;;;3.33;;
10596;SDS011;5346;48.766;8.674;2023-06-04T14:29:59;3.92;;;3.25;;
10596;SDS011;5346;48.766;8.674;2023-06-04T14:32:36;6.85;;;3.78;;
10596;SDS011;5346;48.766;8.674;2023-06-04T14:35:07;5.32;;;3.17;;
10596;SDS011;5346;48.766;8.674;2023-06-04T14:37:35;4.47;;;3.13;;
10596;SDS011;5346;48.766;8.674;2023-06-04T14:40:10;5.85;;;3.60;;
10596;SDS011;5346;48.766;8.674;2023-06-04T14:42:44;6.13;;;3.55;;
10596;SDS011;5346;48.766;8.674;2023-06-04T14:45:18;5.30;;;3.53;;
10596;SDS011;5346;48.766;8.674;2023-06-04T14:47:46;4.07;;;3.58;;
10596;SDS011;5346;48.766;8.674;2023-06-04T14:50:40;4.93;;;3.67;;
10596;SDS011;5346;48.766;8.674;2023-06-04T14:53:14;5.45;;;3.53;;
10596;SDS011;5346;48.766;8.674;2023-06-04T14:55:41;4.75;;;3.72;;
10596;SDS011;5346;48.766;8.674;2023-06-04T14:58:15;5.93;;;3.92;;
10596;SDS011;5346;48.766;8.674;2023-06-04T15:00:49;5.68;;;3.40;;
10596;SDS011;5346;48.766;8.674;2023-06-04T15:03:27;4.45;;;3.15;;
10596;SDS011;5346;48.766;8.674;2023-06-04T15:06:08;5.63;;;3.45;;
10596;SDS011;5346;48.766;8.674;2023-06-04T15:08:46;5.95;;;3.72;;
10596;SDS011;5346;48.766;8.674;2023-06-04T15:11:20;7.68;;;3.90;;
10596;SDS011;5346;48.766;8.674;2023-06-04T15:13:59;5.55;;;3.45;;
10596;SDS011;5346;48.766;8.674;2023-06-04T15:16:27;6.18;;;3.80;;
10596;SDS011;5346;48.766;8.674;2023-06-04T15:19:01;6.10;;;3.63;;
10596;SDS011;5346;48.766;8.674;2023-06-04T15:21:29;9.70;;;4.55;;
10596;SDS011;5346;48.766;8.674;2023-06-04T15:23:56;5.65;;;3.95;;
10596;SDS011;5346;48.766;8.674;2023-06-04T15:26:31;3.88;;;3.50;;
10596;SDS011;5346;48.766;8.674;2023-06-04T15:28:58;7.15;;;3.58;;
10596;SDS011;5346;48.766;8.674;2023-06-04T15:31:33;4.68;;;3.55;;
10596;SDS011;5346;48.766;8.674;2023-06-04T15:34:03;3.63;;;3.33;;
10596;SDS011;5346;48.766;8.674;2023-06-04T15:36:37;7.13;;;3.50;;
10596;SDS011;5346;48.766;8.674;2023-06-04T15:39:11;8.48;;;3.78;;
10596;SDS011;5346;48.766;8.674;2023-06-04T15:41:45;7.00;;;3.72;;
10596;SDS011;5346;48.766;8.674;2023-06-04T15:44:18;3.58;;;3.20;;